TimeEDT,TemperatureF,Dew PointF,Humidity,Sea Level PressureIn,VisibilityMPH,Wind Direction,Wind SpeedMPH,Gust SpeedMPH,PrecipitationIn,Events,Conditions,WindDirDegrees,DateUTC
12:52 AM,34.0,17.1,50,30.14,10.0,NW,8.1,-,N/A,,Clear,320,2013-04-02 04:52:00
1:52 AM,34.0,17.1,50,30.15,10.0,NNW,10.4,-,N/A,,Clear,330,2013-04-02 05:52:00
2:52 AM,32.0,18.0,56,30.16,10.0,North,8.1,-,N/A,,Clear,360,2013-04-02 06:52:00
3:52 AM,28.9,18.0,64,30.16,10.0,North,4.6,-,N/A,,Clear,360,2013-04-02 07:52:00
4:52 AM,28.0,17.1,63,30.17,10.0,NNW,3.5,-,N/A,,Clear,340,2013-04-02 08:52:00
5:52 AM,26.1,16.0,66,30.19,10.0,Calm,Calm,-,N/A,,Clear,0,2013-04-02 09:52:00
6:52 AM,23.0,17.1,78,30.22,10.0,Calm,Calm,-,N/A,,Clear,0,2013-04-02 10:52:00
7:52 AM,25.0,19.9,81,30.24,10.0,Calm,Calm,-,N/A,,Clear,0,2013-04-02 11:52:00
8:52 AM,30.9,21.0,67,30.26,10.0,West,6.9,-,N/A,,Clear,270,2013-04-02 12:52:00
9:52 AM,35.1,19.9,54,30.27,10.0,WNW,6.9,-,N/A,,Clear,290,2013-04-02 13:52:00
10:52 AM,37.9,17.1,43,30.27,10.0,WNW,8.1,-,N/A,,Partly Cloudy,300,2013-04-02 14:52:00
11:52 AM,41.0,15.1,35,30.27,10.0,WNW,10.4,-,N/A,,Partly Cloudy,290,2013-04-02 15:52:00
12:52 PM,42.8,15.8,34,30.24,10.0,WNW,11.5,17.3,N/A,,Clear,290,2013-04-02 16:52:00
1:52 PM,44.1,16.0,32,30.24,10.0,NW,11.5,17.3,0.00,,Clear,320,2013-04-02 17:52:00
2:52 PM,45.0,15.1,30,30.22,10.0,NNW,12.7,20.7,N/A,,Partly Cloudy,330,2013-04-02 18:52:00
3:52 PM,46.0,15.1,29,30.20,10.0,WNW,16.1,20.7,N/A,,Clear,300,2013-04-02 19:52:00
4:52 PM,46.0,10.9,24,30.19,10.0,NW,12.7,20.7,N/A,,Clear,310,2013-04-02 20:52:00
5:52 PM,46.0,12.9,26,30.21,10.0,NW,6.9,-,N/A,,Partly Cloudy,320,2013-04-02 21:52:00
6:52 PM,45.0,12.9,27,30.22,10.0,WNW,12.7,-,N/A,,Partly Cloudy,290,2013-04-02 22:52:00
7:52 PM,42.1,10.9,28,30.22,10.0,WNW,9.2,-,N/A,,Partly Cloudy,300,2013-04-02 23:52:00
8:52 PM,39.9,12.0,32,30.24,10.0,NW,8.1,-,N/A,,Clear,310,2013-04-03 00:52:00
9:52 PM,37.0,15.1,41,30.26,10.0,North,6.9,-,N/A,,Clear,350,2013-04-03 01:52:00
10:52 PM,36.0,16.0,44,30.27,10.0,North,8.1,-,N/A,,Clear,350,2013-04-03 02:52:00
11:52 PM,35.6,15.8,44,30.26,10.0,North,5.8,-,N/A,,Clear,360,2013-04-03 03:52:00